Dixon, California
Current Conditions -  °F | °C
As of 10:35 AM on Thursday 27 Nov 2014 (Local Time) from KEDU Reporting Station
Clear Clear  
Wind Chill: 57°   Ceiling: Unl
Heat Index: 57°   Visibility: 10mi
Dew Point: 48°   Wind: 3mph
Humidity: 72%   Direction: 360°N
Pressure: 30.2"   Gusts: NA
Location:  38.45°N, 121.81°W
Report Text: KEDU 271835Z AUTO 36003KT 10SM CLR 14/09 A3020 RMK AO1
Loading
Personal Weather Stations






























Interactive Weather Map New forecast layout! Learn more

10-Day Weather Forecast

Advertisements
Track Severe Weather on mobile